Brasschaat Airfield

EBBT · Antwerpen, Flanders, 比利时

罗盘
风向 的 风向 的 风向 到 风向 010° Brasschaat Airfield 16/34
风: 5 kt, 2 beaufort

4 kt

2 kt
改变
0 ft 1.000 2.000 3.000 4.000 5.000
Cloud Cloud Cloud Cloud Cloud Cloud Cloud Cloud
OVC 4.400
METAR EHWO 210955Z AUTO 01005KT 300V060 9999 OVC044 18/15 Q1012 BLU TEMPO BKN030 SCT050CB

METAR Brasschaat Airfield - EBBT

Brasschaat Airfield是,比利时中的小机场。 该机场位于纬度51,34481和经度4,50239。 该机场有一条跑道: 16/34. 本场的ICAO机场代码为EBBT。 机场在Amsterdam FIR中。

该航空气象观测是针对Woensdrecht Air Base在2024年6月21日 11:55, 当地时间进行的。

机场观察

风向为010°,速度为5 kt。 风向在300°和060°之间变化。

可见度为10 km 或者更多。

有乌云密布在4.400 ft的高度。 破损或更高的上限为4.400 ft。

温度和风寒是18 °C。 露点为15 °C,相对湿度为83%。 海平面上的气压为1012 hPa (QNH)。

发展趋势

  • 暂时的

    可变方向的风很小或没有。 碎云在3.000 ft的高度 和 疏云,零星散落的云朵 积雨云在5.000 ft的高度.

白天

今天,太阳从05:25升起,在22:02降落。 这适用于Brasschaat Airfield,世界夏令时可能有所不同。 当地时间与世界标准时间之间的时差为+2 小时。 夏令时目前正在进行中。

公司介绍

在这个机场,你可以找到飞行俱乐部。 本场上唯一已知的公司是Brasschaatse Zweefvliegclub。

体会

到Vliegles.nl去找飞行课程,跳伞和其他飞行体验。 浏览页面,了解Brasschaat Airfield附近所有可用的活动。 你也可以使用搜索功能来寻找你所在地附近的特定飞行课程、跳伞或其他飞行体验。

跑道

Id 标题 侧风 逆风 侧风 %
16/34 163°-343° 2 kt 4 kt 45 %

逆风成分最大的方向会被突出显示,并用于横风计算。 这并不一定意味着这个方向在使用。

乌云

4.400 ft OVC 乌云密布
3.000 ft BKN 暂时的 碎云
5.000 ft SCT 暂时的 疏云,零星散落的云朵 积雨云

温度 & 天气

温度 18 °C
露点 15 °C
相对湿度 83%
Kp-index 0 (0-9)

白天

日出
05:25
中午
13:44
日落
22:03 (9:50)

小工具

你想在你的网站上有一个关于Brasschaat Airfield的当前航空天气(METAR)的小部件吗?

显示HTML代码
报告变更